^^
Saratoga-Weather Station Historical Data
Daily Summary for August 1, 2020 Units:  Both    English   Metric
Daily Weekly Monthly Yearly Custom
  High: Low: Average:
Temperature: 76.5 °F /  24.7 °C 55.2 °F /  12.9 °C 67.1 °F /  19.5 °C
Dew Point: 64.2 °F /  17.9 °C 53.2 °F /  11.8 °C 59.5 °F /  15.3 °C
Humidity: 95% 64% 78%
Wind Speed: 8.9mph /  14.3km/h - 2.1mph /  3.3km/h
Wind Gust: 15mph /  24.1km/h - -
Wind- - WSW
Pressure: 29.8 in /  1010.5 hPa 29.8 in /  1007.8 hPa -
Precipitation: 0 in /  0.0 mm    
Historical Graphs
 
 
Tabular Data for August 1, 2020
Time Temperature Dew Point Pressure Wind Wind Speed Wind Gust Humidity Rainfall Rate (Hourly) solar
00:04 62.1 °F /  16.7 °C 56.1 °F /  13.4 °C 29.8in /  1010.5hPa ESE 0.9mph /  1.4km/h 2mph /  3.2km/h 81% 0in /  0.0mm 0 W/m2
00:09 62.1 °F /  16.7 °C 56.1 °F /  13.4 °C 29.8in /  1010.5hPa ESE 0.9mph /  1.4km/h 2mph /  3.2km/h 81% 0in /  0.0mm 0 W/m2
00:14 61.9 °F /  16.6 °C 55.9 °F /  13.3 °C 29.8in /  1010.5hPa East 0.9mph /  1.4km/h 1mph /  1.6km/h 81% 0in /  0.0mm 0 W/m2
00:19 61.9 °F /  16.6 °C 56.3 °F /  13.5 °C 29.8in /  1010.2hPa East 2mph /  3.2km/h 2mph /  3.2km/h 82% 0in /  0.0mm 0 W/m2
00:24 61.9 °F /  16.6 °C 55.9 °F /  13.3 °C 29.8in /  1010.2hPa East 0.9mph /  1.4km/h 1mph /  1.6km/h 81% 0in /  0.0mm 0 W/m2
00:29 61.9 °F /  16.6 °C 55.9 °F /  13.3 °C 29.8in /  1010.2hPa Calm   1mph /  1.6km/h 81% 0in /  0.0mm 0 W/m2
00:34 61.7 °F /  16.5 °C 55.8 °F /  13.2 °C 29.8in /  1010.2hPa Calm     81% 0in /  0.0mm 0 W/m2
00:39 61.5 °F /  16.4 °C 55.9 °F /  13.3 °C 29.8in /  1010.2hPa Calm   1mph /  1.6km/h 82% 0in /  0.0mm 0 W/m2
00:44 61.2 °F /  16.2 °C 55.6 °F /  13.1 °C 29.8in /  1010.2hPa Calm     82% 0in /  0.0mm 0 W/m2
00:49 61 °F /  16.1 °C 55.8 °F /  13.2 °C 29.8in /  1010.2hPa Calm   1mph /  1.6km/h 83% 0in /  0.0mm 0 W/m2
00:54 60.6 °F /  15.9 °C 55.4 °F /  13 °C 29.8in /  1010.2hPa Calm   2mph /  3.2km/h 83% 0in /  0.0mm 0 W/m2
00:59 60.3 °F /  15.7 °C 55.4 °F /  13 °C 29.8in /  1010.2hPa Calm     84% 0in /  0.0mm 0 W/m2
01:04 60.1 °F /  15.6 °C 55.6 °F /  13.1 °C 29.8in /  1010.2hPa Calm   1mph /  1.6km/h 85% 0in /  0.0mm 0 W/m2
01:09 59.7 °F /  15.4 °C 55.2 °F /  12.9 °C 29.8in /  1010.2hPa Calm     85% 0in /  0.0mm 0 W/m2
01:14 59.5 °F /  15.3 °C 55.4 °F /  13 °C 29.8in /  1010.2hPa Calm     86% 0in /  0.0mm 0 W/m2
01:19 59.4 °F /  15.2 °C 55.2 °F /  12.9 °C 29.8in /  1010.2hPa Calm   1mph /  1.6km/h 86% 0in /  0.0mm 0 W/m2
01:24 59.4 °F /  15.2 °C 55.2 °F /  12.9 °C 29.8in /  1010.2hPa Calm     86% 0in /  0.0mm 0 W/m2
01:29 59.2 °F /  15.1 °C 55.4 °F /  13 °C 29.8in /  1010.2hPa Calm   1mph /  1.6km/h 87% 0in /  0.0mm 0 W/m2
01:34 59 °F /  15 °C 55.2 °F /  12.9 °C 29.8in /  1010.2hPa Calm     87% 0in /  0.0mm 0 W/m2
01:39 58.8 °F /  14.9 °C 55 °F /  12.8 °C 29.8in /  1010.2hPa Calm     87% 0in /  0.0mm 0 W/m2
01:44 58.6 °F /  14.8 °C 55 °F /  12.8 °C 29.8in /  1010.2hPa Calm     88% 0in /  0.0mm 0 W/m2
01:49 58.5 °F /  14.7 °C 54.9 °F /  12.7 °C 29.8in /  1010.2hPa Calm     88% 0in /  0.0mm 0 W/m2
01:54 58.3 °F /  14.6 °C 55 °F /  12.8 °C 29.8in /  1010.2hPa Calm   1mph /  1.6km/h 89% 0in /  0.0mm 0 W/m2
01:59 58.3 °F /  14.6 °C 55 °F /  12.8 °C 29.8in /  1010.2hPa Calm   1mph /  1.6km/h 89% 0in /  0.0mm 0 W/m2
02:04 58.3 °F /  14.6 °C 55 °F /  12.8 °C 29.8in /  1010.2hPa Calm     89% 0in /  0.0mm 0 W/m2
02:09 58.3 °F /  14.6 °C 55 °F /  12.8 °C 29.8in /  1010.2hPa Calm   1mph /  1.6km/h 89% 0in /  0.0mm 0 W/m2
02:15 58.3 °F /  14.6 °C 55 °F /  12.8 °C 29.8in /  1010.2hPa SW 0.9mph /  1.4km/h 2mph /  3.2km/h 89% 0in /  0.0mm 0 W/m2
02:20 58.3 °F /  14.6 °C 55.4 °F /  13 °C 29.8in /  1010.2hPa Calm   2mph /  3.2km/h 90% 0in /  0.0mm 0 W/m2
02:25 58.5 °F /  14.7 °C 55.6 °F /  13.1 °C 29.8in /  1010.2hPa SSE 2mph /  3.2km/h 2mph /  3.2km/h 90% 0in /  0.0mm 0 W/m2
02:30 58.6 °F /  14.8 °C 55.4 °F /  13 °C 29.8in /  1010.2hPa Calm   2mph /  3.2km/h 89% 0in /  0.0mm 0 W/m2
02:35 58.8 °F /  14.9 °C 55.6 °F /  13.1 °C 29.8in /  1009.8hPa Calm   2mph /  3.2km/h 89% 0in /  0.0mm 0 W/m2
02:40 59 °F /  15 °C 55.4 °F /  13 °C 29.8in /  1010.2hPa ESE 0.9mph /  1.4km/h 2mph /  3.2km/h 88% 0in /  0.0mm 0 W/m2
02:45 59.2 °F /  15.1 °C 55.6 °F /  13.1 °C 29.8in /  1010.2hPa ESE 2mph /  3.2km/h 4mph /  6.4km/h 88% 0in /  0.0mm 0 W/m2
02:50 59.2 °F /  15.1 °C 55.6 °F /  13.1 °C 29.8in /  1009.8hPa Calm   1mph /  1.6km/h 88% 0in /  0.0mm 0 W/m2
02:55 59.2 °F /  15.1 °C 55.6 °F /  13.1 °C 29.8in /  1009.8hPa ESE 0.9mph /  1.4km/h 3mph /  4.8km/h 88% 0in /  0.0mm 0 W/m2
03:00 59.2 °F /  15.1 °C 55.6 °F /  13.1 °C 29.8in /  1009.8hPa Calm   1mph /  1.6km/h 88% 0in /  0.0mm 0 W/m2
03:05 59.2 °F /  15.1 °C 55.6 °F /  13.1 °C 29.8in /  1009.8hPa Calm   1mph /  1.6km/h 88% 0in /  0.0mm 0 W/m2
03:10 59 °F /  15 °C 55.4 °F /  13 °C 29.8in /  1009.8hPa ESE 2mph /  3.2km/h 2mph /  3.2km/h 88% 0in /  0.0mm 0 W/m2
03:16 58.8 °F /  14.9 °C 55.2 °F /  12.9 °C 29.8in /  1009.5hPa Calm     88% 0in /  0.0mm 0 W/m2
03:21 58.6 °F /  14.8 °C 55 °F /  12.8 °C 29.8in /  1009.5hPa Calm     88% 0in /  0.0mm 0 W/m2
03:26 58.5 °F /  14.7 °C 54.9 °F /  12.7 °C 29.8in /  1009.5hPa Calm     88% 0in /  0.0mm 0 W/m2
03:31 58.3 °F /  14.6 °C 55 °F /  12.8 °C 29.8in /  1009.5hPa Calm     89% 0in /  0.0mm 0 W/m2
03:36 57.9 °F /  14.4 °C 54.7 °F /  12.6 °C 29.8in /  1009.5hPa Calm     89% 0in /  0.0mm 0 W/m2
03:41 57.7 °F /  14.3 °C 54.9 °F /  12.7 °C 29.8in /  1009.5hPa Calm     90% 0in /  0.0mm 0 W/m2
03:46 57.6 °F /  14.2 °C 54.7 °F /  12.6 °C 29.8in /  1009.5hPa Calm     90% 0in /  0.0mm 0 W/m2
03:51 57.4 °F /  14.1 °C 54.5 °F /  12.5 °C 29.8in /  1009.5hPa Calm     90% 0in /  0.0mm 0 W/m2
03:56 57 °F /  13.9 °C 54.5 °F /  12.5 °C 29.8in /  1009.5hPa Calm     91% 0in /  0.0mm 0 W/m2
04:01 57 °F /  13.9 °C 54.5 °F /  12.5 °C 29.8in /  1009.5hPa Calm     91% 0in /  0.0mm 0 W/m2
04:06 56.8 °F /  13.8 °C 54.3 °F /  12.4 °C 29.8in /  1009.5hPa Calm     91% 0in /  0.0mm 0 W/m2
04:11 56.7 °F /  13.7 °C 54.1 °F /  12.3 °C 29.8in /  1009.5hPa Calm     91% 0in /  0.0mm 0 W/m2
04:16 56.7 °F /  13.7 °C 54.3 °F /  12.4 °C 29.8in /  1009.5hPa Calm     92% 0in /  0.0mm 0 W/m2
04:21 56.7 °F /  13.7 °C 54.3 °F /  12.4 °C 29.8in /  1009.5hPa Calm     92% 0in /  0.0mm 0 W/m2
04:26 56.5 °F /  13.6 °C 54.1 °F /  12.3 °C 29.8in /  1009.5hPa ESE 2mph /  3.2km/h 2mph /  3.2km/h 92% 0in /  0.0mm 0 W/m2
04:31 56.5 °F /  13.6 °C 54.1 °F /  12.3 °C 29.8in /  1009.5hPa Calm     92% 0in /  0.0mm 0 W/m2
04:36 56.3 °F /  13.5 °C 54 °F /  12.2 °C 29.8in /  1009.5hPa Calm     92% 0in /  0.0mm 0 W/m2
04:41 56.1 °F /  13.4 °C 53.8 °F /  12.1 °C 29.8in /  1009.5hPa Calm     92% 0in /  0.0mm 0 W/m2
04:46 56.1 °F /  13.4 °C 53.8 °F /  12.1 °C 29.8in /  1009.1hPa Calm     92% 0in /  0.0mm 0 W/m2
04:51 56.1 °F /  13.4 °C 53.8 °F /  12.1 °C 29.8in /  1009.1hPa Calm     92% 0in /  0.0mm 0 W/m2
04:56 55.9 °F /  13.3 °C 54 °F /  12.2 °C 29.8in /  1009.1hPa Calm     93% 0in /  0.0mm 0 W/m2
05:01 55.9 °F /  13.3 °C 54 °F /  12.2 °C 29.8in /  1009.1hPa Calm     93% 0in /  0.0mm 0 W/m2
05:06 55.8 °F /  13.2 °C 53.8 °F /  12.1 °C 29.8in /  1009.1hPa Calm     93% 0in /  0.0mm 0 W/m2
05:11 55.8 °F /  13.2 °C 53.8 °F /  12.1 °C 29.8in /  1009.1hPa Calm     93% 0in /  0.0mm 0 W/m2
05:16 55.6 °F /  13.1 °C 53.6 °F /  12 °C 29.8in /  1009.1hPa Calm     93% 0in /  0.0mm 0 W/m2
05:21 55.6 °F /  13.1 °C 53.6 °F /  12 °C 29.8in /  1009.1hPa Calm     93% 0in /  0.0mm 0 W/m2
05:26 55.6 °F /  13.1 °C 53.6 °F /  12 °C 29.8in /  1009.1hPa Calm     93% 0in /  0.0mm 0 W/m2
05:31 55.4 °F /  13 °C 53.4 °F /  11.9 °C 29.8in /  1009.1hPa Calm     93% 0in /  0.0mm 0 W/m2
05:36 55.2 °F /  12.9 °C 53.2 °F /  11.8 °C 29.8in /  1009.1hPa Calm   1mph /  1.6km/h 93% 0in /  0.0mm 0 W/m2
05:41 55.2 °F /  12.9 °C 53.6 °F /  12 °C 29.8in /  1009.1hPa Calm     94% 0in /  0.0mm 5 W/m2
05:46 55.2 °F /  12.9 °C 53.6 °F /  12 °C 29.8in /  1009.1hPa Calm     94% 0in /  0.0mm 7 W/m2
05:52 55.2 °F /  12.9 °C 53.6 °F /  12 °C 29.8in /  1009.1hPa Calm     94% 0in /  0.0mm 9 W/m2
05:57 55.2 °F /  12.9 °C 53.6 °F /  12 °C 29.8in /  1009.1hPa Calm     94% 0in /  0.0mm 11 W/m2
06:02 55.4 °F /  13 °C 53.8 °F /  12.1 °C 29.8in /  1009.1hPa Calm     94% 0in /  0.0mm 12 W/m2
06:07 55.4 °F /  13 °C 53.8 °F /  12.1 °C 29.8in /  1009.1hPa Calm     94% 0in /  0.0mm 14 W/m2
06:12 55.6 °F /  13.1 °C 54 °F /  12.2 °C 29.8in /  1009.1hPa Calm     94% 0in /  0.0mm 16 W/m2
06:17 55.6 °F /  13.1 °C 54 °F /  12.2 °C 29.8in /  1009.1hPa ESE 0.9mph /  1.4km/h 1mph /  1.6km/h 94% 0in /  0.0mm 16 W/m2
06:22 55.8 °F /  13.2 °C 54.3 °F /  12.4 °C 29.8in /  1009.1hPa ESE 2mph /  3.2km/h 3mph /  4.8km/h 95% 0in /  0.0mm 18 W/m2
06:27 56.1 °F /  13.4 °C 54.7 °F /  12.6 °C 29.8in /  1009.1hPa ESE 2mph /  3.2km/h 2mph /  3.2km/h 95% 0in /  0.0mm 19 W/m2
06:32 56.5 °F /  13.6 °C 55 °F /  12.8 °C 29.8in /  1009.1hPa Calm   3mph /  4.8km/h 95% 0in /  0.0mm 21 W/m2
06:37 57 °F /  13.9 °C 55.6 °F /  13.1 °C 29.8in /  1009.1hPa Calm   3mph /  4.8km/h 95% 0in /  0.0mm 21 W/m2
06:42 57.4 °F /  14.1 °C 55.6 °F /  13.1 °C 29.8in /  1009.1hPa ENE 0.9mph /  1.4km/h 2mph /  3.2km/h 94% 0in /  0.0mm 23 W/m2
06:47 58.3 °F /  14.6 °C 56.5 °F /  13.6 °C 29.8in /  1009.1hPa North 2mph /  3.2km/h 3mph /  4.8km/h 94% 0in /  0.0mm 23 W/m2
06:52 58.8 °F /  14.9 °C 56.8 °F /  13.8 °C 29.8in /  1009.1hPa Calm   2mph /  3.2km/h 93% 0in /  0.0mm 25 W/m2
06:57 59.4 °F /  15.2 °C 57 °F /  13.9 °C 29.8in /  1009.1hPa SW 2mph /  3.2km/h 2mph /  3.2km/h 92% 0in /  0.0mm 25 W/m2
07:02 59.7 °F /  15.4 °C 57 °F /  13.9 °C 29.8in /  1009.1hPa NE 2mph /  3.2km/h 3mph /  4.8km/h 91% 0in /  0.0mm 26 W/m2
07:07 60.3 °F /  15.7 °C 57.4 °F /  14.1 °C 29.8in /  1009.1hPa ENE 2mph /  3.2km/h 6mph /  9.7km/h 90% 0in /  0.0mm 26 W/m2
07:12 60.4 °F /  15.8 °C 57.2 °F /  14 °C 29.8in /  1009.1hPa ENE 2mph /  3.2km/h 2mph /  3.2km/h 89% 0in /  0.0mm 28 W/m2
07:17 60.6 °F /  15.9 °C 57 °F /  13.9 °C 29.8in /  1009.1hPa ENE 2mph /  3.2km/h 4mph /  6.4km/h 88% 0in /  0.0mm 28 W/m2
07:22 61 °F /  16.1 °C 57.4 °F /  14.1 °C 29.8in /  1009.1hPa Calm   4mph /  6.4km/h 88% 0in /  0.0mm 30 W/m2
07:32 61.5 °F /  16.4 °C 57.6 °F /  14.2 °C 29.8in /  1009.1hPa NE 0.9mph /  1.4km/h 3mph /  4.8km/h 87% 0in /  0.0mm 32 W/m2
07:37 61.9 °F /  16.6 °C 57.6 °F /  14.2 °C 29.8in /  1009.1hPa Calm   3mph /  4.8km/h 86% 0in /  0.0mm 32 W/m2
07:42 62.1 °F /  16.7 °C 57.7 °F /  14.3 °C 29.8in /  1009.1hPa NW 0.9mph /  1.4km/h 1mph /  1.6km/h 86% 0in /  0.0mm 33 W/m2
07:47 62.2 °F /  16.8 °C 57.9 °F /  14.4 °C 29.8in /  1009.1hPa East 2mph /  3.2km/h 4mph /  6.4km/h 86% 0in /  0.0mm 204 W/m2
07:52 62.4 °F /  16.9 °C 58.1 °F /  14.5 °C 29.8in /  1009.5hPa ESE 0.9mph /  1.4km/h 2mph /  3.2km/h 86% 0in /  0.0mm 218 W/m2
07:57 63 °F /  17.2 °C 58.5 °F /  14.7 °C 29.8in /  1009.1hPa North 2mph /  3.2km/h 4mph /  6.4km/h 85% 0in /  0.0mm 239 W/m2
08:02 63.3 °F /  17.4 °C 58.5 °F /  14.7 °C 29.8in /  1009.1hPa WNW 4mph /  6.4km/h 7mph /  11.3km/h 84% 0in /  0.0mm 72 W/m2
08:07 63.5 °F /  17.5 °C 58.6 °F /  14.8 °C 29.8in /  1009.1hPa WNW 2mph /  3.2km/h 4mph /  6.4km/h 84% 0in /  0.0mm 111 W/m2
08:12 63.7 °F /  17.6 °C 58.8 °F /  14.9 °C 29.8in /  1009.5hPa WNW 2.9mph /  4.7km/h 6mph /  9.7km/h 84% 0in /  0.0mm 67 W/m2
08:17 63.7 °F /  17.6 °C 58.8 °F /  14.9 °C 29.8in /  1009.5hPa Calm   7mph /  11.3km/h 84% 0in /  0.0mm 114 W/m2
08:22 64 °F /  17.8 °C 59.2 °F /  15.1 °C 29.8in /  1009.5hPa NW 2mph /  3.2km/h 3mph /  4.8km/h 84% 0in /  0.0mm 65 W/m2
08:27 64.6 °F /  18.1 °C 59.4 °F /  15.2 °C 29.8in /  1009.5hPa WNW 2.9mph /  4.7km/h 11mph /  17.7km/h 83% 0in /  0.0mm 62 W/m2
08:32 64.8 °F /  18.2 °C 59.2 °F /  15.1 °C 29.8in /  1009.1hPa WSW 2.9mph /  4.7km/h 6mph /  9.7km/h 82% 0in /  0.0mm 60 W/m2
08:37 64.9 °F /  18.3 °C 59.4 °F /  15.2 °C 29.8in /  1009.1hPa West 2mph /  3.2km/h 11mph /  17.7km/h 82% 0in /  0.0mm 84 W/m2
08:42 65.1 °F /  18.4 °C 59.5 °F /  15.3 °C 29.8in /  1009.1hPa NNE 2mph /  3.2km/h 8mph /  12.9km/h 82% 0in /  0.0mm 121 W/m2
08:47 65.1 °F /  18.4 °C 59.5 °F /  15.3 °C 29.8in /  1009.1hPa WNW 2mph /  3.2km/h 4mph /  6.4km/h 82% 0in /  0.0mm 171 W/m2
08:52 65.3 °F /  18.5 °C 59.7 °F /  15.4 °C 29.8in /  1009.1hPa WNW 0.9mph /  1.4km/h 8mph /  12.9km/h 82% 0in /  0.0mm 188 W/m2
08:57 65.5 °F /  18.6 °C 59.9 °F /  15.5 °C 29.8in /  1009.1hPa NNW 2.9mph /  4.7km/h 3mph /  4.8km/h 82% 0in /  0.0mm 213 W/m2
09:02 65.5 °F /  18.6 °C 59.9 °F /  15.5 °C 29.8in /  1009.5hPa WSW 2.9mph /  4.7km/h 5mph /  8km/h 82% 0in /  0.0mm 206 W/m2
09:07 65.5 °F /  18.6 °C 59.5 °F /  15.3 °C 29.8in /  1009.1hPa WNW 2mph /  3.2km/h 8mph /  12.9km/h 81% 0in /  0.0mm 188 W/m2
09:12 65.5 °F /  18.6 °C 59.9 °F /  15.5 °C 29.8in /  1009.1hPa WNW 0.9mph /  1.4km/h 3mph /  4.8km/h 82% 0in /  0.0mm 250 W/m2
09:17 65.7 °F /  18.7 °C 60.1 °F /  15.6 °C 29.8in /  1009.1hPa Calm   1mph /  1.6km/h 82% 0in /  0.0mm 237 W/m2
09:22 65.7 °F /  18.7 °C 59.7 °F /  15.4 °C 29.8in /  1009.1hPa NW 2mph /  3.2km/h 8mph /  12.9km/h 81% 0in /  0.0mm 248 W/m2
09:27 65.7 °F /  18.7 °C 60.1 °F /  15.6 °C 29.8in /  1009.1hPa NNW 4mph /  6.4km/h 4mph /  6.4km/h 82% 0in /  0.0mm 301 W/m2
09:32 65.8 °F /  18.8 °C 59.9 °F /  15.5 °C 29.8in /  1009.1hPa West 4mph /  6.4km/h 8mph /  12.9km/h 81% 0in /  0.0mm 251 W/m2
09:37 65.8 °F /  18.8 °C 59.9 °F /  15.5 °C 29.8in /  1009.1hPa NW 4.9mph /  7.9km/h 7mph /  11.3km/h 81% 0in /  0.0mm 251 W/m2
09:42 65.8 °F /  18.8 °C 60.3 °F /  15.7 °C 29.8in /  1009.1hPa NW 2mph /  3.2km/h 4mph /  6.4km/h 82% 0in /  0.0mm 276 W/m2
09:47 65.8 °F /  18.8 °C 59.9 °F /  15.5 °C 29.8in /  1009.1hPa WNW 4mph /  6.4km/h 8mph /  12.9km/h 81% 0in /  0.0mm 278 W/m2
09:52 65.8 °F /  18.8 °C 59.9 °F /  15.5 °C 29.8in /  1009.1hPa WNW 2mph /  3.2km/h 6mph /  9.7km/h 81% 0in /  0.0mm 288 W/m2
09:57 66 °F /  18.9 °C 60.1 °F /  15.6 °C 29.8in /  1009.1hPa NNW 0.9mph /  1.4km/h 8mph /  12.9km/h 81% 0in /  0.0mm 262 W/m2
10:03 66.6 °F /  19.2 °C 60.6 °F /  15.9 °C 29.8in /  1009.1hPa WNW 2.9mph /  4.7km/h 4mph /  6.4km/h 81% 0in /  0.0mm 341 W/m2
10:08 66.7 °F /  19.3 °C 60.4 °F /  15.8 °C 29.8in /  1009.1hPa NNW 0.9mph /  1.4km/h 8mph /  12.9km/h 80% 0in /  0.0mm 325 W/m2
10:13 66.9 °F /  19.4 °C 60.6 °F /  15.9 °C 29.8in /  1009.1hPa NNW 4mph /  6.4km/h 5mph /  8km/h 80% 0in /  0.0mm 341 W/m2
10:18 66.7 °F /  19.3 °C 60.4 °F /  15.8 °C 29.8in /  1009.1hPa NW 2.9mph /  4.7km/h 5mph /  8km/h 80% 0in /  0.0mm 274 W/m2
10:23 66.7 °F /  19.3 °C 60.4 °F /  15.8 °C 29.8in /  1009.1hPa WNW 2mph /  3.2km/h 2mph /  3.2km/h 80% 0in /  0.0mm 255 W/m2
10:28 66.9 °F /  19.4 °C 60.6 °F /  15.9 °C 29.8in /  1009.1hPa North 2.9mph /  4.7km/h 3mph /  4.8km/h 80% 0in /  0.0mm 232 W/m2
10:33 67.1 °F /  19.5 °C 60.4 °F /  15.8 °C 29.8in /  1009.1hPa NW 0.9mph /  1.4km/h 7mph /  11.3km/h 79% 0in /  0.0mm 244 W/m2
10:38 66.7 °F /  19.3 °C 60.4 °F /  15.8 °C 29.8in /  1009.1hPa West 4mph /  6.4km/h 4mph /  6.4km/h 80% 0in /  0.0mm 285 W/m2
10:43 66.9 °F /  19.4 °C 60.6 °F /  15.9 °C 29.8in /  1009.1hPa WSW 0.9mph /  1.4km/h 7mph /  11.3km/h 80% 0in /  0.0mm 352 W/m2
10:49 67.1 °F /  19.5 °C 60.8 °F /  16 °C 29.8in /  1009.1hPa Calm   3mph /  4.8km/h 80% 0in /  0.0mm 367 W/m2
10:54 67.5 °F /  19.7 °C 60.8 °F /  16 °C 29.8in /  1009.1hPa West 2mph /  3.2km/h 11mph /  17.7km/h 79% 0in /  0.0mm 380 W/m2
10:59 67.5 °F /  19.7 °C 60.8 °F /  16 °C 29.8in /  1009.1hPa West 6.9mph /  11.1km/h 9mph /  14.5km/h 79% 0in /  0.0mm 339 W/m2
11:04 67.5 °F /  19.7 °C 60.8 °F /  16 °C 29.8in /  1009.1hPa NW 4.9mph /  7.9km/h 11mph /  17.7km/h 79% 0in /  0.0mm 334 W/m2
11:09 67.5 °F /  19.7 °C 60.8 °F /  16 °C 29.8in /  1009.1hPa South 0.9mph /  1.4km/h 3mph /  4.8km/h 79% 0in /  0.0mm 299 W/m2
11:14 67.3 °F /  19.6 °C 60.6 °F /  15.9 °C 29.8in /  1009.1hPa ESE 0.9mph /  1.4km/h 8mph /  12.9km/h 79% 0in /  0.0mm 230 W/m2
11:19 67.5 °F /  19.7 °C 60.8 °F /  16 °C 29.8in /  1009.1hPa ENE 0.9mph /  1.4km/h 5mph /  8km/h 79% 0in /  0.0mm 352 W/m2
11:24 67.6 °F /  19.8 °C 61 °F /  16.1 °C 29.8in /  1009.1hPa SSW 0.9mph /  1.4km/h 5mph /  8km/h 79% 0in /  0.0mm 325 W/m2
11:29 67.6 °F /  19.8 °C 60.6 °F /  15.9 °C 29.8in /  1009.5hPa West 0.9mph /  1.4km/h 8mph /  12.9km/h 78% 0in /  0.0mm 202 W/m2
11:39 67.6 °F /  19.8 °C 61 °F /  16.1 °C 29.8in /  1009.1hPa Calm   8mph /  12.9km/h 79% 0in /  0.0mm 262 W/m2
11:44 67.8 °F /  19.9 °C 61 °F /  16.1 °C 29.8in /  1009.1hPa WNW 2mph /  3.2km/h 6mph /  9.7km/h 79% 0in /  0.0mm 285 W/m2
11:49 68.4 °F /  20.2 °C 61.2 °F /  16.2 °C 29.8in /  1009.1hPa Calm   2mph /  3.2km/h 78% 0in /  0.0mm 483 W/m2
11:54 69.1 °F /  20.6 °C 61.5 °F /  16.4 °C 29.8in /  1009.1hPa WNW 4mph /  6.4km/h 5mph /  8km/h 77% 0in /  0.0mm 401 W/m2
11:59 69.3 °F /  20.7 °C 61 °F /  16.1 °C 29.8in /  1009.1hPa WNW 2.9mph /  4.7km/h 7mph /  11.3km/h 75% 0in /  0.0mm 446 W/m2
12:04 69.4 °F /  20.8 °C 61.2 °F /  16.2 °C 29.8in /  1009.1hPa NNE 2.9mph /  4.7km/h 3mph /  4.8km/h 75% 0in /  0.0mm 411 W/m2
12:09 69.8 °F /  21 °C 61.5 °F /  16.4 °C 29.8in /  1009.1hPa WSW 0.9mph /  1.4km/h 8mph /  12.9km/h 75% 0in /  0.0mm 417 W/m2
12:14 69.8 °F /  21 °C 61.5 °F /  16.4 °C 29.8in /  1009.1hPa West 2.9mph /  4.7km/h 7mph /  11.3km/h 75% 0in /  0.0mm 302 W/m2
12:19 70 °F /  21.1 °C 61.3 °F /  16.3 °C 29.8in /  1009.1hPa ENE 2mph /  3.2km/h 4mph /  6.4km/h 74% 0in /  0.0mm 288 W/m2
12:24 70.3 °F /  21.3 °C 61.7 °F /  16.5 °C 29.8in /  1009.1hPa WNW 4.9mph /  7.9km/h 7mph /  11.3km/h 74% 0in /  0.0mm 408 W/m2
12:29 70.3 °F /  21.3 °C 61.3 °F /  16.3 °C 29.8in /  1009.1hPa WNW 6.9mph /  11.1km/h 10mph /  16.1km/h 73% 0in /  0.0mm 408 W/m2
12:34 71.2 °F /  21.8 °C 61.7 °F /  16.5 °C 29.8in /  1008.8hPa WNW 6.9mph /  11.1km/h 7mph /  11.3km/h 72% 0in /  0.0mm 408 W/m2
12:39 71.8 °F /  22.1 °C 61.9 °F /  16.6 °C 29.8in /  1009.1hPa WNW 6.9mph /  11.1km/h 7mph /  11.3km/h 71% 0in /  0.0mm 408 W/m2
12:44 72 °F /  22.2 °C 61.7 °F /  16.5 °C 29.8in /  1008.8hPa WNW 6.9mph /  11.1km/h   70% 0in /  0.0mm 475 W/m2
12:49 72.3 °F /  22.4 °C 62.1 °F /  16.7 °C 29.8in /  1008.8hPa Calm     70% 0in /  0.0mm 882 W/m2
12:54 72.9 °F /  22.7 °C 62.1 °F /  16.7 °C 29.8in /  1008.8hPa Calm     69% 0in /  0.0mm 882 W/m2
12:59 73.4 °F /  23 °C 62.2 °F /  16.8 °C 29.8in /  1008.8hPa Calm     68% 0in /  0.0mm 1100 W/m2
13:04 73.8 °F /  23.2 °C 62.1 °F /  16.7 °C 29.8in /  1008.8hPa Calm     67% 0in /  0.0mm 1100 W/m2
13:09 73.6 °F /  23.1 °C 62.4 °F /  16.9 °C 29.8in /  1008.8hPa Calm     68% 0in /  0.0mm 531 W/m2
13:14 73.2 °F /  22.9 °C 62.4 °F /  16.9 °C 29.8in /  1008.8hPa WNW 2mph /  3.2km/h 7mph /  11.3km/h 69% 0in /  0.0mm 1158 W/m2
13:19 73.6 °F /  23.1 °C 62.4 °F /  16.9 °C 29.8in /  1008.8hPa WSW 4mph /  6.4km/h 5mph /  8km/h 68% 0in /  0.0mm 1137 W/m2
13:24 73.9 °F /  23.3 °C 62.8 °F /  17.1 °C 29.8in /  1008.8hPa West 2.9mph /  4.7km/h 3mph /  4.8km/h 68% 0in /  0.0mm 1035 W/m2
13:29 74.5 °F /  23.6 °C 62.4 °F /  16.9 °C 29.8in /  1008.8hPa West 8.1mph /  13km/h 13mph /  20.9km/h 66% 0in /  0.0mm 668 W/m2
13:34 73.6 °F /  23.1 °C 61.9 °F /  16.6 °C 29.8in /  1008.8hPa WNW 6.9mph /  11.1km/h 7mph /  11.3km/h 67% 0in /  0.0mm 668 W/m2
13:39 73.9 °F /  23.3 °C 62.2 °F /  16.8 °C 29.8in /  1008.8hPa NNW 2mph /  3.2km/h 13mph /  20.9km/h 67% 0in /  0.0mm 991 W/m2
13:44 74.1 °F /  23.4 °C 62.1 °F /  16.7 °C 29.8in /  1008.8hPa West 8.9mph /  14.3km/h 10mph /  16.1km/h 66% 0in /  0.0mm 1014 W/m2
13:49 74.5 °F /  23.6 °C 63.1 °F /  17.3 °C 29.8in /  1008.8hPa WNW 4mph /  6.4km/h 13mph /  20.9km/h 68% 0in /  0.0mm 308 W/m2
13:54 74.7 °F /  23.7 °C 62.6 °F /  17 °C 29.8in /  1008.8hPa North 6mph /  9.7km/h 8mph /  12.9km/h 66% 0in /  0.0mm 1188 W/m2
13:59 74.8 °F /  23.8 °C 62.8 °F /  17.1 °C 29.8in /  1008.5hPa NW 2.9mph /  4.7km/h 11mph /  17.7km/h 66% 0in /  0.0mm 1171 W/m2
14:04 74.7 °F /  23.7 °C 62.6 °F /  17 °C 29.8in /  1008.8hPa WSW 6mph /  9.7km/h 15mph /  24.1km/h 66% 0in /  0.0mm 490 W/m2
14:09 74.1 °F /  23.4 °C 62.4 °F /  16.9 °C 29.8in /  1008.8hPa WNW 2mph /  3.2km/h 8mph /  12.9km/h 67% 0in /  0.0mm 380 W/m2
14:14 73.8 °F /  23.2 °C 62.1 °F /  16.7 °C 29.8in /  1008.8hPa North 4.9mph /  7.9km/h 7mph /  11.3km/h 67% 0in /  0.0mm 406 W/m2
14:19 73.2 °F /  22.9 °C 62.1 °F /  16.7 °C 29.8in /  1008.8hPa NE 0.9mph /  1.4km/h 8mph /  12.9km/h 68% 0in /  0.0mm 487 W/m2
14:24 73.2 °F /  22.9 °C 62.4 °F /  16.9 °C 29.8in /  1008.8hPa NW 0.9mph /  1.4km/h 2mph /  3.2km/h 69% 0in /  0.0mm 404 W/m2
14:29 73.9 °F /  23.3 °C 62.2 °F /  16.8 °C 29.8in /  1008.8hPa WNW 2.9mph /  4.7km/h 9mph /  14.5km/h 67% 0in /  0.0mm 417 W/m2
14:34 73.9 °F /  23.3 °C 62.2 °F /  16.8 °C 29.8in /  1008.8hPa NW 2.9mph /  4.7km/h 11mph /  17.7km/h 67% 0in /  0.0mm 336 W/m2
14:39 73.8 °F /  23.2 °C 62.6 °F /  17 °C 29.8in /  1008.8hPa West 4mph /  6.4km/h 6mph /  9.7km/h 68% 0in /  0.0mm 308 W/m2
14:44 73.8 °F /  23.2 °C 62.1 °F /  16.7 °C 29.8in /  1008.8hPa NNW 2mph /  3.2km/h 11mph /  17.7km/h 67% 0in /  0.0mm 468 W/m2
14:49 73.6 °F /  23.1 °C 62.8 °F /  17.1 °C 29.8in /  1008.8hPa NE 2mph /  3.2km/h 10mph /  16.1km/h 69% 0in /  0.0mm 394 W/m2
14:54 73.8 °F /  23.2 °C 62.6 °F /  17 °C 29.8in /  1008.5hPa NW 2.9mph /  4.7km/h 4mph /  6.4km/h 68% 0in /  0.0mm 359 W/m2
14:59 73.9 °F /  23.3 °C 62.8 °F /  17.1 °C 29.8in /  1008.5hPa West 2mph /  3.2km/h 7mph /  11.3km/h 68% 0in /  0.0mm 459 W/m2
15:04 74.5 °F /  23.6 °C 63.1 °F /  17.3 °C 29.8in /  1008.5hPa West 8.9mph /  14.3km/h 9mph /  14.5km/h 68% 0in /  0.0mm 487 W/m2
15:09 74.7 °F /  23.7 °C 62.6 °F /  17 °C 29.8in /  1008.8hPa NW 4mph /  6.4km/h 6mph /  9.7km/h 66% 0in /  0.0mm 346 W/m2
15:14 74.5 °F /  23.6 °C 62.8 °F /  17.1 °C 29.8in /  1008.5hPa WNW 4mph /  6.4km/h 9mph /  14.5km/h 67% 0in /  0.0mm 969 W/m2
15:19 74.5 °F /  23.6 °C 62.8 °F /  17.1 °C 29.8in /  1008.5hPa SW 0.9mph /  1.4km/h 4mph /  6.4km/h 67% 0in /  0.0mm 378 W/m2
15:25 74.5 °F /  23.6 °C 62.8 °F /  17.1 °C 29.8in /  1008.8hPa WSW 8.9mph /  14.3km/h 11mph /  17.7km/h 67% 0in /  0.0mm 383 W/m2
15:30 74.1 °F /  23.4 °C 63 °F /  17.2 °C 29.8in /  1008.5hPa WNW 2mph /  3.2km/h 8mph /  12.9km/h 68% 0in /  0.0mm 376 W/m2
15:35 74.3 °F /  23.5 °C 62.6 °F /  17 °C 29.8in /  1008.5hPa NW 2mph /  3.2km/h 10mph /  16.1km/h 67% 0in /  0.0mm 373 W/m2
15:40 74.5 °F /  23.6 °C 63.1 °F /  17.3 °C 29.8in /  1008.5hPa NNW 0.9mph /  1.4km/h 2mph /  3.2km/h 68% 0in /  0.0mm 295 W/m2
15:45 74.7 °F /  23.7 °C 63 °F /  17.2 °C 29.8in /  1008.5hPa SW 0.9mph /  1.4km/h 9mph /  14.5km/h 67% 0in /  0.0mm 301 W/m2
15:55 74.5 °F /  23.6 °C 63.1 °F /  17.3 °C 29.8in /  1008.5hPa West 2.9mph /  4.7km/h 7mph /  11.3km/h 68% 0in /  0.0mm 271 W/m2
16:00 74.7 °F /  23.7 °C 63 °F /  17.2 °C 29.8in /  1008.8hPa NW 2.9mph /  4.7km/h 9mph /  14.5km/h 67% 0in /  0.0mm 199 W/m2
16:05 74.5 °F /  23.6 °C 62.8 °F /  17.1 °C 29.8in /  1008.8hPa WNW 4mph /  6.4km/h 4mph /  6.4km/h 67% 0in /  0.0mm 193 W/m2
16:10 74.3 °F /  23.5 °C 63.1 °F /  17.3 °C 29.8in /  1008.5hPa NW 2.9mph /  4.7km/h 7mph /  11.3km/h 68% 0in /  0.0mm 450 W/m2
16:15 74.7 °F /  23.7 °C 63 °F /  17.2 °C 29.8in /  1008.8hPa NNW 8.1mph /  13km/h 11mph /  17.7km/h 67% 0in /  0.0mm 450 W/m2
16:20 74.3 °F /  23.5 °C 62.6 °F /  17 °C 29.8in /  1008.5hPa SSW 2mph /  3.2km/h 6mph /  9.7km/h 67% 0in /  0.0mm 234 W/m2
16:25 74.5 °F /  23.6 °C 63.7 °F /  17.6 °C 29.8in /  1008.5hPa WSW 2.9mph /  4.7km/h 9mph /  14.5km/h 69% 0in /  0.0mm 206 W/m2
16:30 74.8 °F /  23.8 °C 63.1 °F /  17.3 °C 29.8in /  1008.5hPa NNW 2.9mph /  4.7km/h 4mph /  6.4km/h 67% 0in /  0.0mm 360 W/m2
16:35 75.4 °F /  24.1 °C 63.7 °F /  17.6 °C 29.8in /  1008.5hPa WNW 4mph /  6.4km/h 8mph /  12.9km/h 67% 0in /  0.0mm 302 W/m2
16:40 75.6 °F /  24.2 °C 63.3 °F /  17.4 °C 29.8in /  1008.5hPa WNW 4mph /  6.4km/h 10mph /  16.1km/h 66% 0in /  0.0mm 907 W/m2
16:45 75.9 °F /  24.4 °C 64.2 °F /  17.9 °C 29.8in /  1008.5hPa WSW 0.9mph /  1.4km/h 4mph /  6.4km/h 67% 0in /  0.0mm 837 W/m2
16:50 76.3 °F /  24.6 °C 64 °F /  17.8 °C 29.8in /  1008.5hPa SW 4mph /  6.4km/h 4mph /  6.4km/h 66% 0in /  0.0mm 770 W/m2
16:55 76.3 °F /  24.6 °C 63.7 °F /  17.6 °C 29.8in /  1008.5hPa WNW 2mph /  3.2km/h 4mph /  6.4km/h 65% 0in /  0.0mm 747 W/m2
17:00 75.7 °F /  24.3 °C 63.1 °F /  17.3 °C 29.8in /  1008.5hPa SW 4mph /  6.4km/h 6mph /  9.7km/h 65% 0in /  0.0mm 188 W/m2
17:05 75.6 °F /  24.2 °C 63.3 °F /  17.4 °C 29.8in /  1008.5hPa West 6mph /  9.7km/h 8mph /  12.9km/h 66% 0in /  0.0mm 188 W/m2
17:11 75.6 °F /  24.2 °C 63 °F /  17.2 °C 29.8in /  1008.1hPa West 6mph /  9.7km/h 12mph /  19.3km/h 65% 0in /  0.0mm 719 W/m2
17:16 75.9 °F /  24.4 °C 63.7 °F /  17.6 °C 29.8in /  1008.1hPa West 6mph /  9.7km/h 7mph /  11.3km/h 66% 0in /  0.0mm 649 W/m2
17:21 76.3 °F /  24.6 °C 63.7 °F /  17.6 °C 29.8in /  1008.1hPa WSW 2.9mph /  4.7km/h 10mph /  16.1km/h 65% 0in /  0.0mm 664 W/m2
17:26 76.5 °F /  24.7 °C 63.3 °F /  17.4 °C 29.8in /  1008.1hPa WSW 8.1mph /  13km/h 10mph /  16.1km/h 64% 0in /  0.0mm 135 W/m2
17:31 75.9 °F /  24.4 °C 63.3 °F /  17.4 °C 29.8in /  1008.1hPa WNW 4mph /  6.4km/h 6mph /  9.7km/h 65% 0in /  0.0mm 160 W/m2
17:36 75.6 °F /  24.2 °C 63 °F /  17.2 °C 29.8in /  1008.1hPa WNW 4mph /  6.4km/h 5mph /  8km/h 65% 0in /  0.0mm 176 W/m2
17:41 75.2 °F /  24 °C 63.1 °F /  17.3 °C 29.8in /  1008.1hPa SW 4mph /  6.4km/h 8mph /  12.9km/h 66% 0in /  0.0mm 178 W/m2
17:46 74.8 °F /  23.8 °C 62.8 °F /  17.1 °C 29.8in /  1008.1hPa SW 2.9mph /  4.7km/h 4mph /  6.4km/h 66% 0in /  0.0mm 148 W/m2
17:51 74.8 °F /  23.8 °C 63.1 °F /  17.3 °C 29.8in /  1008.1hPa WNW 2.9mph /  4.7km/h 6mph /  9.7km/h 67% 0in /  0.0mm 178 W/m2
17:56 74.8 °F /  23.8 °C 63.1 °F /  17.3 °C 29.8in /  1008.1hPa NW 2mph /  3.2km/h 3mph /  4.8km/h 67% 0in /  0.0mm 200 W/m2
18:01 75 °F /  23.9 °C 63.3 °F /  17.4 °C 29.8in /  1007.8hPa WNW 2mph /  3.2km/h 3mph /  4.8km/h 67% 0in /  0.0mm 155 W/m2
18:06 75 °F /  23.9 °C 63.3 °F /  17.4 °C 29.8in /  1008.1hPa Calm   8mph /  12.9km/h 67% 0in /  0.0mm 95 W/m2
18:11 74.8 °F /  23.8 °C 62.8 °F /  17.1 °C 29.8in /  1008.1hPa West 2.9mph /  4.7km/h 8mph /  12.9km/h 66% 0in /  0.0mm 118 W/m2
18:16 74.7 °F /  23.7 °C 63 °F /  17.2 °C 29.8in /  1007.8hPa West 0.9mph /  1.4km/h 8mph /  12.9km/h 67% 0in /  0.0mm 104 W/m2
18:21 74.5 °F /  23.6 °C 62.8 °F /  17.1 °C 29.8in /  1007.8hPa WSW 2mph /  3.2km/h 6mph /  9.7km/h 67% 0in /  0.0mm 137 W/m2
18:26 74.5 °F /  23.6 °C 62.8 °F /  17.1 °C 29.8in /  1007.8hPa WNW 2mph /  3.2km/h 7mph /  11.3km/h 67% 0in /  0.0mm 137 W/m2
18:31 74.5 °F /  23.6 °C 62.8 °F /  17.1 °C 29.8in /  1007.8hPa West 4mph /  6.4km/h 6mph /  9.7km/h 67% 0in /  0.0mm 128 W/m2
18:36 74.5 °F /  23.6 °C 62.8 °F /  17.1 °C 29.8in /  1007.8hPa WNW 2mph /  3.2km/h 4mph /  6.4km/h 67% 0in /  0.0mm 104 W/m2
18:41 74.5 °F /  23.6 °C 62.8 °F /  17.1 °C 29.8in /  1007.8hPa West 6mph /  9.7km/h 7mph /  11.3km/h 67% 0in /  0.0mm 109 W/m2
18:46 74.5 °F /  23.6 °C 62.8 °F /  17.1 °C 29.8in /  1007.8hPa West 2.9mph /  4.7km/h 4mph /  6.4km/h 67% 0in /  0.0mm 107 W/m2
18:51 74.5 °F /  23.6 °C 62.8 °F /  17.1 °C 29.8in /  1007.8hPa WSW 2mph /  3.2km/h 4mph /  6.4km/h 67% 0in /  0.0mm 95 W/m2
18:56 74.5 °F /  23.6 °C 62.4 °F /  16.9 °C 29.8in /  1007.8hPa WNW 2.9mph /  4.7km/h 4mph /  6.4km/h 66% 0in /  0.0mm 179 W/m2
19:01 74.5 °F /  23.6 °C 62.4 °F /  16.9 °C 29.8in /  1007.8hPa West 4mph /  6.4km/h 9mph /  14.5km/h 66% 0in /  0.0mm 162 W/m2
19:06 74.5 °F /  23.6 °C 61.9 °F /  16.6 °C 29.8in /  1007.8hPa WSW 2.9mph /  4.7km/h 8mph /  12.9km/h 65% 0in /  0.0mm 153 W/m2
19:11 74.5 °F /  23.6 °C 61.9 °F /  16.6 °C 29.8in /  1007.8hPa WSW 0.9mph /  1.4km/h 4mph /  6.4km/h 65% 0in /  0.0mm 114 W/m2
19:16 74.5 °F /  23.6 °C 61.9 °F /  16.6 °C 29.8in /  1007.8hPa NW 2mph /  3.2km/h 7mph /  11.3km/h 65% 0in /  0.0mm 100 W/m2
19:21 74.5 °F /  23.6 °C 62.4 °F /  16.9 °C 29.8in /  1007.8hPa NW 4mph /  6.4km/h 4mph /  6.4km/h 66% 0in /  0.0mm 123 W/m2
19:26 74.5 °F /  23.6 °C 61.9 °F /  16.6 °C 29.8in /  1007.8hPa Calm   7mph /  11.3km/h 65% 0in /  0.0mm 137 W/m2
19:31 74.5 °F /  23.6 °C 62.4 °F /  16.9 °C 29.8in /  1007.8hPa SW 0.9mph /  1.4km/h 2mph /  3.2km/h 66% 0in /  0.0mm 90 W/m2
19:36 74.5 °F /  23.6 °C 62.4 °F /  16.9 °C 29.8in /  1007.8hPa WNW 2mph /  3.2km/h 7mph /  11.3km/h 66% 0in /  0.0mm 77 W/m2
19:41 74.3 °F /  23.5 °C 62.2 °F /  16.8 °C 29.8in /  1007.8hPa West 2mph /  3.2km/h 2mph /  3.2km/h 66% 0in /  0.0mm 86 W/m2
19:46 74.3 °F /  23.5 °C 62.2 °F /  16.8 °C 29.8in /  1007.8hPa West 4mph /  6.4km/h 8mph /  12.9km/h 66% 0in /  0.0mm 63 W/m2
19:51 74.1 °F /  23.4 °C 61.5 °F /  16.4 °C 29.8in /  1007.8hPa WNW 0.9mph /  1.4km/h 4mph /  6.4km/h 65% 0in /  0.0mm 62 W/m2
19:56 74.1 °F /  23.4 °C 61.5 °F /  16.4 °C 29.8in /  1008.1hPa NW 0.9mph /  1.4km/h 8mph /  12.9km/h 65% 0in /  0.0mm 53 W/m2
20:01 74.1 °F /  23.4 °C 61.5 °F /  16.4 °C 29.8in /  1007.8hPa North 0.9mph /  1.4km/h 2mph /  3.2km/h 65% 0in /  0.0mm 67 W/m2
20:06 74.1 °F /  23.4 °C 62.1 °F /  16.7 °C 29.8in /  1007.8hPa NW 0.9mph /  1.4km/h 3mph /  4.8km/h 66% 0in /  0.0mm 67 W/m2
20:11 74.1 °F /  23.4 °C 62.1 °F /  16.7 °C 29.8in /  1007.8hPa West 0.9mph /  1.4km/h 2mph /  3.2km/h 66% 0in /  0.0mm 49 W/m2
20:16 73.9 °F /  23.3 °C 61.9 °F /  16.6 °C 29.8in /  1007.8hPa West 2mph /  3.2km/h 2mph /  3.2km/h 66% 0in /  0.0mm 35 W/m2
20:21 73.9 °F /  23.3 °C 61.9 °F /  16.6 °C 29.8in /  1007.8hPa West 2mph /  3.2km/h 6mph /  9.7km/h 66% 0in /  0.0mm 32 W/m2
20:26 73.8 °F /  23.2 °C 61.7 °F /  16.5 °C 29.8in /  1007.8hPa WNW 4.9mph /  7.9km/h 5mph /  8km/h 66% 0in /  0.0mm 39 W/m2
20:31 73.6 °F /  23.1 °C 61.2 °F /  16.2 °C 29.8in /  1007.8hPa NW 2.9mph /  4.7km/h 4mph /  6.4km/h 65% 0in /  0.0mm 19 W/m2
20:36 73.6 °F /  23.1 °C 61.2 °F /  16.2 °C 29.8in /  1007.8hPa WNW 2.9mph /  4.7km/h 4mph /  6.4km/h 65% 0in /  0.0mm 11 W/m2
20:41 73.4 °F /  23 °C 61 °F /  16.1 °C 29.8in /  1007.8hPa NW 2.9mph /  4.7km/h 7mph /  11.3km/h 65% 0in /  0.0mm 9 W/m2
20:46 73.2 °F /  22.9 °C 61.2 °F /  16.2 °C 29.8in /  1007.8hPa SW 0.9mph /  1.4km/h 4mph /  6.4km/h 66% 0in /  0.0mm 9 W/m2
20:51 73.2 °F /  22.9 °C 61.2 °F /  16.2 °C 29.8in /  1007.8hPa SSW 2.9mph /  4.7km/h 8mph /  12.9km/h 66% 0in /  0.0mm 12 W/m2
20:56 73 °F /  22.8 °C 61 °F /  16.1 °C 29.8in /  1008.1hPa NNW 2mph /  3.2km/h 4mph /  6.4km/h 66% 0in /  0.0mm 11 W/m2
21:01 73 °F /  22.8 °C 61 °F /  16.1 °C 29.8in /  1008.1hPa West 2mph /  3.2km/h 8mph /  12.9km/h 66% 0in /  0.0mm 18 W/m2
21:06 72.9 °F /  22.7 °C 60.8 °F /  16 °C 29.8in /  1008.1hPa NW 0.9mph /  1.4km/h 2mph /  3.2km/h 66% 0in /  0.0mm 14 W/m2
21:11 72.9 °F /  22.7 °C 60.8 °F /  16 °C 29.8in /  1008.1hPa WNW 4mph /  6.4km/h 6mph /  9.7km/h 66% 0in /  0.0mm 11 W/m2
21:16 72.7 °F /  22.6 °C 61.2 °F /  16.2 °C 29.8in /  1008.1hPa WNW 2mph /  3.2km/h 4mph /  6.4km/h 67% 0in /  0.0mm 12 W/m2
21:26 72.5 °F /  22.5 °C 61 °F /  16.1 °C 29.8in /  1008.1hPa NW 0.9mph /  1.4km/h 2mph /  3.2km/h 67% 0in /  0.0mm 12 W/m2
21:31 72.3 °F /  22.4 °C 61.2 °F /  16.2 °C 29.8in /  1008.1hPa NW 0.9mph /  1.4km/h 6mph /  9.7km/h 68% 0in /  0.0mm 9 W/m2
21:36 72.1 °F /  22.3 °C 61 °F /  16.1 °C 29.8in /  1008.1hPa NNE 2.9mph /  4.7km/h 3mph /  4.8km/h 68% 0in /  0.0mm 5 W/m2
21:41 72.1 °F /  22.3 °C 61 °F /  16.1 °C 29.8in /  1008.1hPa NW 2.9mph /  4.7km/h 6mph /  9.7km/h 68% 0in /  0.0mm 0 W/m2
21:46 72 °F /  22.2 °C 60.8 °F /  16 °C 29.8in /  1008.1hPa WNW 4mph /  6.4km/h 5mph /  8km/h 68% 0in /  0.0mm 0 W/m2
21:51 72 °F /  22.2 °C 60.8 °F /  16 °C 29.8in /  1008.1hPa NW 2mph /  3.2km/h 3mph /  4.8km/h 68% 0in /  0.0mm 0 W/m2
21:56 71.8 °F /  22.1 °C 60.6 °F /  15.9 °C 29.8in /  1008.1hPa WNW 0.9mph /  1.4km/h 8mph /  12.9km/h 68% 0in /  0.0mm 0 W/m2
22:01 71.6 °F /  22 °C 60.8 °F /  16 °C 29.8in /  1008.5hPa West 0.9mph /  1.4km/h 3mph /  4.8km/h 69% 0in /  0.0mm 0 W/m2
22:06 71.4 °F /  21.9 °C 60.8 °F /  16 °C 29.8in /  1008.5hPa WNW 2mph /  3.2km/h 3mph /  4.8km/h 69% 0in /  0.0mm 0 W/m2
22:11 71.4 °F /  21.9 °C 61.2 °F /  16.2 °C 29.8in /  1008.5hPa West 2mph /  3.2km/h 2mph /  3.2km/h 70% 0in /  0.0mm 0 W/m2
22:16 71.2 °F /  21.8 °C 61 °F /  16.1 °C 29.8in /  1008.8hPa West 0.9mph /  1.4km/h 3mph /  4.8km/h 70% 0in /  0.0mm 0 W/m2
22:21 71.1 °F /  21.7 °C 60.8 °F /  16 °C 29.8in /  1008.8hPa WNW 4mph /  6.4km/h 4mph /  6.4km/h 70% 0in /  0.0mm 0 W/m2
22:26 70.9 °F /  21.6 °C 60.6 °F /  15.9 °C 29.8in /  1008.8hPa SW 4mph /  6.4km/h 6mph /  9.7km/h 70% 0in /  0.0mm 0 W/m2
22:31 70.9 °F /  21.6 °C 60.6 °F /  15.9 °C 29.8in /  1009.1hPa WNW 2.9mph /  4.7km/h 6mph /  9.7km/h 70% 0in /  0.0mm 0 W/m2
22:36 70.7 °F /  21.5 °C 60.8 °F /  16 °C 29.8in /  1009.1hPa WSW 6.9mph /  11.1km/h 8mph /  12.9km/h 71% 0in /  0.0mm 0 W/m2
22:41 70.5 °F /  21.4 °C 60.6 °F /  15.9 °C 29.8in /  1009.1hPa West 2mph /  3.2km/h 8mph /  12.9km/h 71% 0in /  0.0mm 0 W/m2
22:46 70.5 °F /  21.4 °C 61 °F /  16.1 °C 29.8in /  1009.1hPa WSW 4mph /  6.4km/h 8mph /  12.9km/h 72% 0in /  0.0mm 0 W/m2
22:51 70.3 °F /  21.3 °C 61.3 °F /  16.3 °C 29.8in /  1009.1hPa WNW 4.9mph /  7.9km/h 9mph /  14.5km/h 73% 0in /  0.0mm 0 W/m2
22:57 70.2 °F /  21.2 °C 61.9 °F /  16.6 °C 29.8in /  1009.5hPa West 2.9mph /  4.7km/h 5mph /  8km/h 75% 0in /  0.0mm 0 W/m2
23:02 69.6 °F /  20.9 °C 61.7 °F /  16.5 °C 29.8in /  1009.5hPa WNW 4mph /  6.4km/h 11mph /  17.7km/h 76% 0in /  0.0mm 0 W/m2
23:07 69.3 °F /  20.7 °C 62.1 °F /  16.7 °C 29.8in /  1009.5hPa NW 2.9mph /  4.7km/h 9mph /  14.5km/h 78% 0in /  0.0mm 0 W/m2
23:12 68.9 °F /  20.5 °C 62.1 °F /  16.7 °C 29.8in /  1009.8hPa WSW 4.9mph /  7.9km/h 7mph /  11.3km/h 79% 0in /  0.0mm 0 W/m2
23:17 68.7 °F /  20.4 °C 62.2 °F /  16.8 °C 29.8in /  1009.5hPa West 2.9mph /  4.7km/h 7mph /  11.3km/h 80% 0in /  0.0mm 0 W/m2
23:22 68.4 °F /  20.2 °C 61.9 °F /  16.6 °C 29.8in /  1009.5hPa West 6mph /  9.7km/h 9mph /  14.5km/h 80% 0in /  0.0mm 0 W/m2
23:27 68.2 °F /  20.1 °C 62.1 °F /  16.7 °C 29.8in /  1009.8hPa WNW 2.9mph /  4.7km/h 6mph /  9.7km/h 81% 0in /  0.0mm 0 W/m2
23:32 68 °F /  20 °C 62.2 °F /  16.8 °C 29.8in /  1009.8hPa WSW 6.9mph /  11.1km/h 8mph /  12.9km/h 82% 0in /  0.0mm 0 W/m2
23:37 67.8 °F /  19.9 °C 62.1 °F /  16.7 °C 29.8in /  1009.8hPa WNW 4mph /  6.4km/h 4mph /  6.4km/h 82% 0in /  0.0mm 0 W/m2
23:42 67.8 °F /  19.9 °C 62.1 °F /  16.7 °C 29.8in /  1009.8hPa WNW 4.9mph /  7.9km/h 7mph /  11.3km/h 82% 0in /  0.0mm 0 W/m2
23:47 67.6 °F /  19.8 °C 61.9 °F /  16.6 °C 29.8in /  1009.8hPa NW 6.9mph /  11.1km/h 9mph /  14.5km/h 82% 0in /  0.0mm 0 W/m2
23:52 67.6 °F /  19.8 °C 61.9 °F /  16.6 °C 29.8in /  1009.8hPa WNW 0.9mph /  1.4km/h 2mph /  3.2km/h 82% 0in /  0.0mm 0 W/m2
23:57 67.6 °F /  19.8 °C 62.2 °F /  16.8 °C 29.8in /  1009.8hPa West 0.9mph /  1.4km/h 9mph /  14.5km/h 83% 0in /  0.0mm 0 W/m2
Juneau County Weather
Compliments of Weather Underground - 4 mb